Time;durP1;ratioP1;P1;durP2;ratioP2;P2;SDS_P1;SDS_P2;PMS_P1;PMS_P2;Temp;Humidity;BMP_temperature;BMP_pressure;BME280_temperature;BME280_humidity;BME280_pressure;Samples;Min_cycle;Max_cycle;Signal;HPM_P1;HPM_P2
2022/01/20 00:01:48;;;;;;;12.80;2.45;;;;;;;2.62;100.00;100846.03;5976230;29;20051;-88
2022/01/20 00:25:57;;;;;;;13.43;2.38;;;;;;;2.51;100.00;100838.81;5975815;29;20466;-87
2022/01/20 00:29:01;;;;;;;13.82;2.47;;;;;;;2.58;100.00;100829.16;5975341;29;20048;-87
2022/01/20 00:32:11;;;;;;;15.95;2.95;;;;;;;2.69;100.00;100836.41;5974298;29;20516;-87
2022/01/20 00:38:16;;;;;;;15.05;3.10;;;;;;;2.64;100.00;100849.38;5973337;29;20061;-87
2022/01/20 00:41:18;;;;;;;18.15;2.70;;;;;;;2.56;100.00;100848.88;5972050;29;20058;-88
2022/01/20 00:44:21;;;;;;;15.25;2.97;;;;;;;2.59;100.00;100834.22;5974620;29;20172;-87
2022/01/20 00:47:23;;;;;;;11.88;2.40;;;;;;;2.53;100.00;100831.91;5974193;29;20235;-87
2022/01/20 00:50:25;;;;;;;20.05;3.22;;;;;;;2.53;100.00;100837.00;5974822;29;20074;-87
2022/01/20 00:53:27;;;;;;;24.30;4.03;;;;;;;2.52;100.00;100837.09;5972957;29;20042;-87
2022/01/20 00:56:30;;;;;;;16.10;2.63;;;;;;;2.51;100.00;100843.06;5976549;29;20047;-88
2022/01/20 00:59:45;;;;;;;19.30;2.95;;;;;;;2.55;100.00;100857.41;5975098;29;20047;-87
2022/01/20 01:02:48;;;;;;;15.70;2.83;;;;;;;2.53;100.00;100854.06;5973221;29;20046;-87
2022/01/20 01:06:05;;;;;;;16.85;3.08;;;;;;;2.61;100.00;100857.16;5978299;29;20130;-87
2022/01/20 01:09:07;;;;;;;13.65;2.92;;;;;;;2.54;100.00;100853.19;5978105;29;20424;-87
2022/01/20 01:12:15;;;;;;;14.07;3.08;;;;;;;2.49;100.00;100837.22;5975553;29;20594;-87
2022/01/20 01:15:26;;;;;;;17.45;2.95;;;;;;;2.43;100.00;100832.34;5978282;29;20553;-87
2022/01/20 01:22:03;;;;;;;16.85;3.10;;;;;;;2.45;100.00;100833.13;5970463;29;20387;-87
2022/01/20 01:25:06;;;;;;;16.80;2.78;;;;;;;2.46;100.00;100830.50;5977492;29;20100;-87
2022/01/20 01:28:09;;;;;;;9.43;3.15;;;;;;;2.49;100.00;100834.66;5964728;29;20046;-87
2022/01/20 01:34:14;;;;;;;13.80;2.70;;;;;;;2.70;100.00;100854.22;5970409;29;20048;-87
2022/01/20 01:40:37;;;;;;;20.33;2.63;;;;;;;2.57;100.00;100840.28;5981532;29;20081;-87
2022/01/20 01:43:44;;;;;;;15.60;3.67;;;;;;;2.72;100.00;100846.50;5978716;29;20058;-87
2022/01/20 01:46:48;;;;;;;17.23;3.00;;;;;;;2.77;100.00;100845.41;5969068;29;20062;-87
2022/01/20 01:49:50;;;;;;;17.27;2.47;;;;;;;2.82;100.00;100841.84;5993970;29;20051;-87
2022/01/20 01:52:55;;;;;;;12.77;2.92;;;;;;;2.87;100.00;100839.91;5971562;29;20042;-88
2022/01/20 01:55:58;;;;;;;15.32;3.03;;;;;;;2.91;100.00;100849.97;5978469;29;20419;-87
2022/01/20 01:59:01;;;;;;;13.45;2.28;;;;;;;2.94;100.00;100843.88;5978794;29;20046;-88
2022/01/20 02:02:43;;;;;;;12.75;2.45;;;;;;;3.06;100.00;100842.53;5952067;29;20051;-87
2022/01/20 02:06:30;;;;;;;13.75;2.50;;;;;;;3.06;100.00;100843.38;5952967;29;20420;-88
2022/01/20 02:20:27;;;;;;;20.23;3.08;;;;;;;2.96;100.00;100812.25;5977862;29;20052;-88
2022/01/20 02:23:37;;;;;;;18.65;3.50;;;;;;;2.96;100.00;100816.53;5976893;29;20094;-87
2022/01/20 02:26:40;;;;;;;18.58;3.20;;;;;;;2.98;100.00;100807.03;5978278;29;20144;-87
2022/01/20 02:29:45;;;;;;;11.95;3.00;;;;;;;2.95;100.00;100822.53;5977559;29;20054;-87
2022/01/20 02:33:21;;;;;;;13.93;2.33;;;;;;;2.92;100.00;100804.75;5975940;29;20075;-88
2022/01/20 02:36:31;;;;;;;13.68;1.88;;;;;;;2.82;100.00;100806.06;5977935;29;20078;-87
2022/01/20 02:46:04;;;;;;;12.90;2.10;;;;;;;2.60;100.00;100806.94;5976761;29;20795;-87
2022/01/20 02:49:12;;;;;;;12.05;2.25;;;;;;;2.61;100.00;100808.63;5964721;29;20047;-88
2022/01/20 02:52:13;;;;;;;10.10;1.95;;;;;;;2.64;100.00;100812.78;5954811;29;20911;-87
2022/01/20 02:55:15;;;;;;;10.63;2.60;;;;;;;2.70;100.00;100815.88;5974964;29;20051;-88
2022/01/20 02:58:17;;;;;;;12.82;2.35;;;;;;;2.70;100.00;100794.63;5976182;29;20157;-88
2022/01/20 03:01:20;;;;;;;9.60;2.83;;;;;;;2.74;100.00;100804.66;5986893;29;20399;-87
2022/01/20 03:04:25;;;;;;;14.05;2.10;;;;;;;2.62;100.00;100801.78;5988713;29;20046;-87
2022/01/20 03:07:30;;;;;;;8.45;2.88;;;;;;;2.63;100.00;100799.13;5977786;29;20050;-87
2022/01/20 03:10:32;;;;;;;13.35;2.00;;;;;;;2.58;100.00;100789.13;5978288;29;20046;-88
2022/01/20 03:13:36;;;;;;;7.82;2.03;;;;;;;2.57;100.00;100791.75;5974841;29;20115;-88
2022/01/20 03:16:38;;;;;;;11.77;2.17;;;;;;;2.54;100.00;100807.22;5976548;29;20080;-92
2022/01/20 03:19:41;;;;;;;9.73;2.10;;;;;;;2.30;100.00;100778.38;5982411;29;20038;-92
2022/01/20 03:22:45;;;;;;;12.52;2.10;;;;;;;2.13;100.00;100773.94;5981903;29;20526;-91
2022/01/20 03:25:48;;;;;;;8.75;1.80;;;;;;;2.09;100.00;100785.19;5980754;29;20051;-92
2022/01/20 03:28:52;;;;;;;10.27;1.75;;;;;;;2.16;100.00;100796.78;5978531;29;20494;-91
2022/01/20 03:31:55;;;;;;;10.45;1.92;;;;;;;2.03;100.00;100787.97;5972999;29;20142;-91
2022/01/20 03:34:57;;;;;;;8.38;2.00;;;;;;;2.04;100.00;100771.78;5975006;29;20088;-91
2022/01/20 03:37:59;;;;;;;6.07;1.73;;;;;;;1.93;100.00;100770.44;5974666;29;20050;-90
2022/01/20 03:41:02;;;;;;;6.93;1.80;;;;;;;1.97;100.00;100783.09;5975718;29;20049;-91
2022/01/20 03:44:04;;;;;;;4.88;1.38;;;;;;;1.97;100.00;100793.31;5977305;29;20429;-91
2022/01/20 03:47:08;;;;;;;4.38;1.30;;;;;;;2.03;100.00;100778.56;5976804;29;20189;-90
2022/01/20 03:50:59;;;;;;;5.40;1.25;;;;;;;1.92;100.00;100776.44;5966054;29;20633;-91
2022/01/20 03:53:38;;;;;;;6.78;1.80;;;;;;;1.97;100.00;100798.44;5975691;29;20500;-91
2022/01/20 03:57:00;;;;;;;6.95;1.20;;;;;;;1.94;100.00;100797.66;5975738;29;20067;-91
2022/01/20 04:00:21;;;;;;;;;;;;;;;2.00;100.00;100801.69;5979105;29;20488;-91
2022/01/20 04:03:35;;;;;;;5.22;1.10;;;;;;;1.95;100.00;100790.81;5977450;29;19929;-91
2022/01/20 04:06:47;;;;;;;3.78;1.10;;;;;;;1.99;100.00;100825.56;5973604;29;20066;-90
2022/01/20 04:09:50;;;;;;;8.90;1.52;;;;;;;2.04;100.00;100807.50;5977069;29;20038;-92
2022/01/20 04:12:52;;;;;;;4.07;1.40;;;;;;;2.05;100.00;100807.44;5975512;29;20065;-91
2022/01/20 04:15:54;;;;;;;4.05;1.17;;;;;;;2.05;100.00;100829.59;5960680;29;20070;-90
2022/01/20 04:18:57;;;;;;;3.45;1.20;;;;;;;2.03;100.00;100827.06;5979432;29;20133;-90
2022/01/20 04:22:00;;;;;;;4.47;1.17;;;;;;;2.07;100.00;100809.94;5979037;29;20051;-92
2022/01/20 04:25:04;;;;;;;7.43;1.40;;;;;;;2.02;100.00;100857.78;5978826;29;20126;-91
2022/01/20 04:28:07;;;;;;;3.72;1.10;;;;;;;2.01;100.00;100868.88;5979483;29;20443;-91
2022/01/20 04:31:08;;;;;;;4.15;1.25;;;;;;;1.92;100.00;100853.03;5975501;29;20187;-90
2022/01/20 04:34:11;;;;;;;2.00;1.10;;;;;;;1.87;100.00;100831.13;5978288;29;20412;-90
2022/01/20 04:37:14;;;;;;;8.40;2.22;;;;;;;1.82;100.00;100830.47;5975241;29;20053;-91
2022/01/20 04:40:17;;;;;;;6.57;1.50;;;;;;;1.76;100.00;100839.16;5981377;29;20061;-90
2022/01/20 04:43:21;;;;;;;5.55;0.90;;;;;;;1.85;100.00;100832.91;5977973;29;20773;-90
2022/01/20 04:46:53;;;;;;;4.13;1.20;;;;;;;1.86;100.00;100857.53;5976724;29;20530;-90
2022/01/20 04:59:58;;;;;;;4.55;0.90;;;;;;;1.76;100.00;100880.00;5981688;29;20062;-91
2022/01/20 05:03:03;;;;;;;5.25;1.50;;;;;;;1.72;100.00;100870.81;5982683;29;20092;-91
2022/01/20 05:06:09;;;;;;;4.38;1.38;;;;;;;1.63;100.00;100868.59;5959486;29;20499;-91
2022/01/20 05:09:17;;;;;;;6.20;1.50;;;;;;;1.62;100.00;100902.66;5993971;29;20042;-92
2022/01/20 05:12:26;;;;;;;5.68;1.40;;;;;;;1.60;100.00;100899.31;5957923;29;20400;-91
2022/01/20 05:15:29;;;;;;;6.03;1.27;;;;;;;1.62;100.00;100897.56;5975731;29;20530;-91
2022/01/20 05:18:31;;;;;;;7.95;1.63;;;;;;;1.57;100.00;100889.22;5974077;29;20129;-91
2022/01/20 05:21:33;;;;;;;7.72;1.25;;;;;;;1.69;100.00;100904.94;5972748;29;20371;-91
2022/01/20 05:24:39;;;;;;;7.10;1.10;;;;;;;1.58;100.00;100909.56;5972536;29;20054;-91
2022/01/20 05:27:43;;;;;;;6.00;1.20;;;;;;;1.54;100.00;100908.03;5974600;29;20038;-91
2022/01/20 05:30:45;;;;;;;6.90;1.70;;;;;;;1.62;100.00;100912.84;5974137;29;20053;-91
2022/01/20 05:34:06;;;;;;;8.25;1.60;;;;;;;1.70;100.00;100946.59;5976198;29;20133;-91
2022/01/20 05:37:09;;;;;;;4.90;0.90;;;;;;;1.65;100.00;100918.66;5973218;29;20657;-90
2022/01/20 05:40:11;;;;;;;6.15;1.38;;;;;;;1.68;100.00;100936.41;5975475;29;20051;-91
2022/01/20 05:43:14;;;;;;;7.13;1.48;;;;;;;1.72;100.00;100934.59;5973708;29;20070;-90
2022/01/20 05:46:23;;;;;;;9.73;1.67;;;;;;;1.70;100.00;100941.47;5974712;29;20050;-90
2022/01/20 05:49:33;;;;;;;6.95;1.40;;;;;;;1.68;100.00;100951.72;5977188;29;20065;-91
2022/01/20 05:52:43;;;;;;;10.07;2.03;;;;;;;1.56;100.00;100974.28;5967709;29;20061;-92
2022/01/20 05:55:47;;;;;;;8.30;1.77;;;;;;;1.32;100.00;100973.38;5983243;29;20043;-91
2022/01/20 05:58:49;;;;;;;7.95;1.88;;;;;;;1.11;100.00;100980.03;5983051;29;20768;-91
2022/01/20 06:02:02;;;;;;;6.82;2.47;;;;;;;1.10;100.00;100991.97;5982118;29;20074;-90
2022/01/20 06:05:12;;;;;;;7.68;1.92;;;;;;;1.01;100.00;100984.59;5978434;29;20581;-90
2022/01/20 06:08:22;;;;;;;11.32;2.08;;;;;;;0.99;100.00;100989.72;5966131;29;20499;-91
2022/01/20 06:11:25;;;;;;;5.35;1.30;;;;;;;1.00;100.00;100999.06;5972338;29;20074;-91
2022/01/20 06:14:28;;;;;;;10.25;1.63;;;;;;;0.69;100.00;100983.06;5980564;29;20469;-90
2022/01/20 06:17:33;;;;;;;6.88;1.83;;;;;;;0.49;100.00;100998.94;5980233;29;20053;-90
2022/01/20 06:20:41;;;;;;;9.38;1.65;;;;;;;0.45;100.00;101030.44;5966151;29;20120;-90
2022/01/20 06:23:49;;;;;;;8.10;1.67;;;;;;;0.54;100.00;101027.66;5980143;29;20081;-90
2022/01/20 06:27:04;;;;;;;5.97;1.50;;;;;;;0.47;100.00;101047.34;5981115;29;20412;-90
2022/01/20 06:30:07;;;;;;;10.45;2.00;;;;;;;0.50;100.00;101020.97;5965043;29;20052;-89
2022/01/20 06:33:10;;;;;;;12.02;1.42;;;;;;;0.37;100.00;101026.44;5959138;29;20047;-89
2022/01/20 06:36:18;;;;;;;11.65;2.28;;;;;;;0.38;100.00;101020.47;5961842;29;20152;-89
2022/01/20 06:39:20;;;;;;;7.22;2.45;;;;;;;0.36;100.00;101021.38;5963604;29;20505;-89
2022/01/20 06:42:23;;;;;;;8.00;1.75;;;;;;;0.17;100.00;101026.16;5981491;29;20051;-90
2022/01/20 06:45:25;;;;;;;8.70;1.95;;;;;;;0.25;100.00;101033.56;5981014;29;20439;-89
2022/01/20 06:48:37;;;;;;;9.27;1.98;;;;;;;0.28;100.00;101048.78;5973177;29;20187;-89
2022/01/20 06:52:03;;;;;;;8.70;2.22;;;;;;;0.29;100.00;101048.72;5968598;29;20594;-89
2022/01/20 06:55:10;;;;;;;10.65;1.88;;;;;;;0.31;100.00;101054.59;5958741;29;20053;-90
2022/01/20 06:58:12;;;;;;;8.55;2.13;;;;;;;0.36;100.00;101062.94;5957824;29;20642;-89
2022/01/20 07:01:16;;;;;;;8.13;1.88;;;;;;;0.33;100.00;101059.66;5968882;29;20739;-89
2022/01/20 07:04:22;;;;;;;7.60;1.83;;;;;;;0.50;100.00;101061.72;5958741;29;20491;-89
2022/01/20 07:07:25;;;;;;;7.72;1.85;;;;;;;0.54;100.00;101078.59;5978642;29;20053;-89
2022/01/20 07:10:40;;;;;;;14.13;1.92;;;;;;;0.41;100.00;101084.03;5978961;29;20535;-89
2022/01/20 07:13:56;;;;;;;10.73;2.28;;;;;;;0.58;100.00;101091.19;5964678;29;20060;-89
2022/01/20 07:16:58;;;;;;;7.40;1.58;;;;;;;0.68;100.00;101094.31;5980047;29;20470;-89
2022/01/20 07:20:01;;;;;;;7.97;1.92;;;;;;;0.58;100.00;101095.47;5974073;29;20043;-89
2022/01/20 07:23:04;;;;;;;13.90;2.40;;;;;;;0.51;100.00;101096.50;5977670;29;20046;-89
2022/01/20 07:26:14;;;;;;;10.32;1.48;;;;;;;0.72;100.00;101118.84;5974373;29;20100;-89
2022/01/20 07:29:21;;;;;;;11.70;1.75;;;;;;;0.69;100.00;101131.66;5980550;29;20102;-89
2022/01/20 07:32:23;;;;;;;7.82;1.60;;;;;;;0.63;100.00;101130.09;5976889;29;20667;-89
2022/01/20 07:35:27;;;;;;;12.35;2.13;;;;;;;0.60;100.00;101117.47;5980098;29;20042;-90
2022/01/20 07:38:30;;;;;;;9.23;1.58;;;;;;;0.54;100.00;101124.44;5964302;29;20055;-89
2022/01/20 07:41:32;;;;;;;12.32;1.85;;;;;;;0.45;100.00;101132.31;5968511;29;20061;-89
2022/01/20 07:44:38;;;;;;;7.82;2.75;;;;;;;0.35;100.00;101135.13;5969076;29;20050;-90
2022/01/20 07:47:48;;;;;;;10.10;1.63;;;;;;;0.34;100.00;101127.53;5980393;29;20066;-89
2022/01/20 07:50:50;;;;;;;12.52;2.35;;;;;;;0.33;100.00;101133.50;5972581;29;20198;-89
2022/01/20 07:53:58;;;;;;;5.32;1.65;;;;;;;0.29;100.00;101139.53;5955418;29;20069;-90
2022/01/20 07:57:00;;;;;;;7.80;1.73;;;;;;;0.26;100.00;101135.38;5964244;29;20132;-90
2022/01/20 08:00:04;;;;;;;8.65;1.80;;;;;;;0.16;100.00;101134.78;5977109;29;20054;-90
2022/01/20 08:03:17;;;;;;;7.47;2.08;;;;;;;0.19;100.00;101137.22;5977092;29;20059;-90
2022/01/20 08:06:35;;;;;;;13.02;2.30;;;;;;;0.09;100.00;101160.44;5965602;29;20563;-90
2022/01/20 08:13:15;;;;;;;8.32;1.60;;;;;;;0.15;100.00;101170.44;5988847;29;20050;-90
2022/01/20 08:16:20;;;;;;;10.15;1.75;;;;;;;0.23;100.00;101191.47;5955317;29;20469;-91
2022/01/20 08:19:23;;;;;;;10.57;1.92;;;;;;;0.21;100.00;101180.47;5970029;29;20076;-90
2022/01/20 08:22:28;;;;;;;6.88;1.42;;;;;;;0.38;100.00;101180.06;5976993;29;20053;-92
2022/01/20 08:25:40;;;;;;;13.23;2.00;;;;;;;0.55;100.00;101188.09;5954664;29;20062;-90
2022/01/20 08:28:43;;;;;;;7.93;1.83;;;;;;;0.71;100.00;101187.66;5967274;29;20054;-90
2022/01/20 08:31:45;;;;;;;5.75;2.13;;;;;;;0.87;100.00;101183.81;5963713;29;20402;-90
2022/01/20 08:35:09;;;;;;;7.13;2.03;;;;;;;0.95;100.00;101186.97;5981187;29;20412;-90
2022/01/20 08:38:27;;;;;;;4.85;1.60;;;;;;;0.91;100.00;101190.50;5980842;29;20084;-90
2022/01/20 08:41:29;;;;;;;9.27;2.20;;;;;;;0.97;100.00;101187.78;5961478;29;20062;-91
2022/01/20 08:44:32;;;;;;;8.82;1.67;;;;;;;0.95;100.00;101178.50;5974860;29;20044;-89
2022/01/20 08:47:35;;;;;;;7.88;1.98;;;;;;;0.93;100.00;101181.09;5959901;29;20061;-90
2022/01/20 08:50:37;;;;;;;8.23;2.03;;;;;;;0.95;100.00;101188.72;5973388;29;20049;-89
2022/01/20 08:53:39;;;;;;;8.60;2.28;;;;;;;0.94;100.00;101181.91;5963689;29;20085;-89
2022/01/20 08:56:44;;;;;;;11.35;1.63;;;;;;;0.82;100.00;101214.53;5980091;29;20046;-90
2022/01/20 08:59:46;;;;;;;12.80;2.28;;;;;;;0.90;100.00;101195.66;5974475;29;20061;-89
2022/01/20 09:02:48;;;;;;;6.78;1.35;;;;;;;1.03;100.00;101186.75;5979200;29;20047;-89
2022/01/20 09:05:51;;;;;;;12.90;2.08;;;;;;;1.04;100.00;101188.41;5978097;29;20146;-89
2022/01/20 09:09:09;;;;;;;7.68;1.90;;;;;;;0.91;100.00;101184.56;5977461;29;20104;-89
2022/01/20 09:15:27;;;;;;;6.05;1.48;;;;;;;1.03;100.00;101195.25;5963535;29;20497;-89
2022/01/20 09:15:41;;;;;;;4.80;1.10;;;;;;;1.18;100.00;101183.75;5977801;29;20046;-90
2022/01/20 09:19:02;;;;;;;5.00;1.38;;;;;;;1.24;100.00;101178.50;5972935;29;20062;-89
2022/01/20 09:22:09;;;;;;;8.68;1.60;;;;;;;1.28;100.00;101186.88;5974776;29;20054;-89
2022/01/20 09:25:11;;;;;;;6.97;2.00;;;;;;;1.35;100.00;101175.63;5975353;29;20039;-87
2022/01/20 09:28:17;;;;;;;10.38;1.70;;;;;;;1.40;100.00;101166.09;5982583;29;20116;-88
2022/01/20 09:31:25;;;;;;;6.43;1.67;;;;;;;1.49;100.00;101182.84;5968868;29;20062;-88
2022/01/20 09:34:29;;;;;;;8.82;2.13;;;;;;;1.44;100.00;101208.50;5964743;29;20042;-87
2022/01/20 09:37:31;;;;;;;8.57;1.55;;;;;;;1.31;100.00;101208.91;5977373;29;20051;-87
2022/01/20 09:40:36;;;;;;;6.90;1.90;;;;;;;1.16;100.00;101205.09;5972063;29;20445;-88
2022/01/20 09:43:40;;;;;;;7.95;2.00;;;;;;;1.24;100.00;101215.88;5975906;29;20423;-88
2022/01/20 09:46:53;;;;;;;5.40;2.42;;;;;;;1.32;100.00;101215.66;5975132;29;20062;-87
2022/01/20 09:50:06;;;;;;;8.68;1.80;;;;;;;1.35;100.00;101205.41;5974521;29;20051;-87
2022/01/20 09:53:30;;;;;;;9.23;1.70;;;;;;;1.44;100.00;101218.72;5973807;29;20087;-87
2022/01/20 09:56:50;;;;;;;12.70;2.45;;;;;;;1.56;100.00;101231.97;5972971;29;20054;-87
2022/01/20 09:59:54;;;;;;;10.68;1.77;;;;;;;1.50;100.00;101231.28;5980827;29;20054;-87
2022/01/20 10:03:08;;;;;;;16.83;2.75;;;;;;;1.58;100.00;101233.59;5971757;29;20118;-87
2022/01/20 10:06:14;;;;;;;10.82;1.92;;;;;;;1.51;100.00;101227.00;5967907;29;20050;-90
2022/01/20 10:09:39;;;;;;;9.35;2.05;;;;;;;1.53;100.00;101232.06;5964891;29;20057;-89
2022/01/20 10:12:48;;;;;;;8.25;2.33;;;;;;;1.51;100.00;101224.44;5961342;29;20046;-87
2022/01/20 10:16:15;;;;;;;10.63;1.92;;;;;;;1.36;100.00;101232.56;5978134;29;20058;-87
2022/01/20 10:19:40;;;;;;;7.53;1.48;;;;;;;1.32;100.00;101234.38;5966002;29;20053;-87
2022/01/20 10:23:00;;;;;;;18.92;2.28;;;;;;;1.29;100.00;101226.78;5972436;29;20058;-87
2022/01/20 10:26:24;;;;;;;11.27;2.03;;;;;;;1.32;100.00;101239.47;5972831;29;20051;-87
2022/01/20 10:29:32;;;;;;;8.80;1.88;;;;;;;1.20;100.00;101263.59;5974091;29;20067;-87
2022/01/20 10:32:56;;;;;;;9.67;2.00;;;;;;;1.21;100.00;101249.13;5968242;29;20057;-87
2022/01/20 10:36:07;;;;;;;6.82;1.42;;;;;;;1.29;100.00;101249.75;5966257;29;20345;-87
2022/01/20 10:39:14;;;;;;;13.82;2.55;;;;;;;1.45;100.00;101250.16;5978686;29;20053;-87
2022/01/20 10:42:21;;;;;;;7.82;2.03;;;;;;;1.46;100.00;101234.78;5970351;29;20054;-87
2022/01/20 10:45:28;;;;;;;7.30;1.42;;;;;;;1.59;100.00;101231.88;5968281;29;20058;-86
2022/01/20 10:48:33;;;;;;;6.90;1.52;;;;;;;1.52;100.00;101226.13;5970560;29;20058;-87
2022/01/20 10:51:37;;;;;;;13.50;1.85;;;;;;;1.51;100.00;101240.56;5979941;29;20141;-87
2022/01/20 10:54:46;;;;;;;9.75;2.22;;;;;;;1.45;100.00;101250.97;5976865;29;20134;-87
2022/01/20 10:58:22;;;;;;;9.80;1.33;;;;;;;1.32;100.00;101266.66;5972372;29;20185;-87
2022/01/20 11:01:28;;;;;;;12.35;2.08;;;;;;;1.03;100.00;101266.63;5974479;29;20061;-87
2022/01/20 11:04:30;;;;;;;11.23;2.58;;;;;;;0.73;100.00;101257.25;5972076;29;20142;-88
2022/01/20 11:07:37;;;;;;;11.80;2.10;;;;;;;0.61;100.00;101260.94;5977838;29;20058;-88
2022/01/20 11:10:42;;;;;;;15.20;2.20;;;;;;;0.53;100.00;101267.97;5961603;29;20046;-90
2022/01/20 11:14:00;;;;;;;19.90;3.65;;;;;;;0.38;100.00;101277.66;5972826;29;20049;-89
2022/01/20 11:17:04;;;;;;;11.27;2.35;;;;;;;0.29;100.00;101256.66;5970392;29;20118;-88
2022/01/20 11:20:13;;;;;;;15.07;3.03;;;;;;;0.19;100.00;101269.59;5972133;29;20141;-88
2022/01/20 11:23:16;;;;;;;7.78;1.70;;;;;;;0.16;100.00;101262.06;5973585;29;20488;-89
2022/01/20 11:26:32;;;;;;;10.48;2.00;;;;;;;0.22;100.00;101255.97;5979181;29;20074;-89
2022/01/20 11:29:56;;;;;;;9.65;2.85;;;;;;;0.35;100.00;101247.19;5971970;29;20047;-89
2022/01/20 11:33:18;;;;;;;9.10;2.00;;;;;;;0.35;100.00;101249.72;5964187;29;20773;-88
2022/01/20 11:36:29;;;;;;;11.93;2.40;;;;;;;0.49;100.00;101248.53;5977173;29;20046;-87
2022/01/20 11:40:06;;;;;;;13.68;2.53;;;;;;;0.63;100.00;101244.75;5977895;29;20058;-87
2022/01/20 11:43:10;;;;;;;11.48;2.65;;;;;;;0.70;100.00;101232.69;5978176;29;20218;-87
2022/01/20 11:46:19;;;;;;;12.98;2.05;;;;;;;0.75;100.00;101219.84;5971903;29;20062;-87
2022/01/20 11:49:22;;;;;;;8.85;2.08;;;;;;;0.81;100.00;101206.91;5979349;29;20054;-89
2022/01/20 11:52:26;;;;;;;14.77;2.42;;;;;;;0.81;100.00;101215.38;5972925;29;20073;-89
2022/01/20 11:55:29;;;;;;;13.18;2.33;;;;;;;0.64;100.00;101218.38;5972458;29;20054;-90
2022/01/20 11:58:31;;;;;;;10.82;2.20;;;;;;;0.51;100.00;101193.28;5975636;29;20046;-90
2022/01/20 12:01:52;;;;;;;7.78;1.80;;;;;;;0.71;100.00;101203.78;5978274;29;20503;-90
2022/01/20 12:04:55;;;;;;;13.05;4.18;;;;;;;0.91;100.00;101195.59;5969196;29;20078;-90
2022/01/20 12:08:20;;;;;;;12.90;2.63;;;;;;;1.03;100.00;101186.75;5976025;29;20437;-90
2022/01/20 12:11:46;;;;;;;10.82;2.78;;;;;;;1.13;100.00;101185.63;5969604;29;20062;-90
2022/01/20 12:14:51;;;;;;;6.95;1.75;;;;;;;1.17;100.00;101192.31;5982039;29;20397;-90
2022/01/20 12:17:55;;;;;;;7.35;2.03;;;;;;;1.27;100.00;101182.69;5977591;29;20580;-90
2022/01/20 12:21:04;;;;;;;9.02;1.75;;;;;;;1.42;100.00;101173.72;5978587;29;20047;-90
2022/01/20 12:24:06;;;;;;;6.35;2.08;;;;;;;1.58;100.00;101177.47;5964416;29;20456;-88
2022/01/20 12:27:22;;;;;;;7.32;1.98;;;;;;;1.67;100.00;101171.25;5975527;29;20658;-88
2022/01/20 12:30:25;;;;;;;11.15;2.17;;;;;;;1.63;100.00;101183.25;5966511;29;20419;-88
2022/01/20 12:33:31;;;;;;;9.43;1.70;;;;;;;1.51;100.00;101169.16;5971081;29;20125;-88
2022/01/20 12:36:38;;;;;;;8.88;1.80;;;;;;;1.29;100.00;101239.53;5973089;29;20141;-89
2022/01/20 12:39:42;;;;;;;7.22;2.00;;;;;;;0.61;100.00;101238.84;5971732;29;20046;-89
2022/01/20 12:42:44;;;;;;;3.83;1.35;;;;;;;0.34;100.00;101209.84;5975649;29;20124;-90
2022/01/20 12:45:57;;;;;;;3.10;1.10;;;;;;;0.21;100.00;101221.22;5973139;29;20053;-87
2022/01/20 12:49:25;;;;;;;6.72;1.05;;;;;;;0.29;100.00;101219.31;5970237;29;20057;-86
2022/01/20 12:52:27;;;;;;;5.70;1.15;;;;;;;0.29;100.00;101183.66;5970893;29;20054;-88
2022/01/20 12:55:30;;;;;;;7.20;1.25;;;;;;;0.32;100.00;101182.75;5963303;29;20425;-89
2022/01/20 12:58:50;;;;;;;7.45;1.70;;;;;;;0.22;100.00;101199.97;5969719;29;20043;-89
2022/01/20 13:01:53;;;;;;;4.65;1.55;;;;;;;0.12;100.00;101199.34;5979494;29;20281;-89
2022/01/20 13:05:00;;;;;;;5.45;1.88;;;;;;;0.17;100.00;101187.38;5986523;29;20048;-91
2022/01/20 13:08:04;;;;;;;7.43;2.10;;;;;;;0.37;100.00;101183.47;5974601;29;20526;-89
2022/01/20 13:11:09;;;;;;;9.48;1.95;;;;;;;0.55;100.00;101170.25;5976800;29;20126;-90
2022/01/20 13:14:12;;;;;;;8.55;2.63;;;;;;;0.50;100.00;101172.09;5966478;29;20054;-89
2022/01/20 13:17:30;;;;;;;6.10;2.38;;;;;;;0.62;100.00;101160.72;5976061;29;20437;-89
2022/01/20 13:20:33;;;;;;;8.40;1.52;;;;;;;0.74;100.00;101175.66;5974026;29;20046;-89
2022/01/20 13:27:11;;;;;;;11.50;2.63;;;;;;;1.66;100.00;101183.16;5989526;29;20424;-89
2022/01/20 13:30:28;;;;;;;5.57;1.70;;;;;;;1.63;100.00;101195.19;5972031;29;20054;-89
2022/01/20 13:33:38;;;;;;;6.93;1.52;;;;;;;1.53;100.00;101191.25;5967642;29;20047;-89
2022/01/20 13:36:45;;;;;;;6.75;1.25;;;;;;;1.45;100.00;101189.75;5974730;29;20054;-88
2022/01/20 13:39:49;;;;;;;8.23;1.30;;;;;;;1.33;100.00;101209.69;5972389;29;20078;-89
2022/01/20 13:46:22;;;;;;;10.45;1.77;;;;;;;1.14;100.00;101209.38;5972912;29;20187;-88
2022/01/20 13:49:31;;;;;;;7.53;1.58;;;;;;;1.08;100.00;101198.50;5977411;29;20500;-87
2022/01/20 13:52:38;;;;;;;8.05;1.38;;;;;;;1.02;100.00;101183.38;5973427;29;20061;-87
2022/01/20 13:55:43;;;;;;;11.40;3.15;;;;;;;0.98;100.00;101171.59;5970488;29;20042;-87
2022/01/20 13:58:45;;;;;;;9.45;1.70;;;;;;;1.13;100.00;101175.41;5982316;29;20659;-88
2022/01/20 14:02:00;;;;;;;6.78;1.30;;;;;;;1.23;100.00;101169.16;5977669;29;20415;-89
2022/01/20 14:05:03;;;;;;;5.97;1.48;;;;;;;1.50;100.00;101198.09;5978850;29;20103;-89
2022/01/20 14:08:05;;;;;;;4.53;1.58;;;;;;;1.54;100.00;101205.66;5973195;29;20057;-89
2022/01/20 14:11:22;;;;;;;3.25;1.05;;;;;;;1.45;100.00;101199.97;5968973;29;20050;-90
2022/01/20 14:14:24;;;;;;;2.75;1.42;;;;;;;1.32;100.00;101197.81;5978508;29;20062;-89
2022/01/20 14:17:34;;;;;;;4.95;1.48;;;;;;;1.22;100.00;101255.91;5977832;29;20046;-90
2022/01/20 14:20:38;;;;;;;0.70;0.40;;;;;;;0.44;100.00;101225.72;5975436;29;20493;-89
2022/01/20 14:23:40;;;;;;;4.35;0.50;;;;;;;-0.17;100.00;101284.03;5977958;29;20523;-86
2022/01/20 14:26:44;;;;;;;3.92;0.73;;;;;;;-0.43;100.00;101233.72;5978045;29;20123;-88
2022/01/20 14:29:52;;;;;;;7.22;0.80;;;;;;;-0.46;100.00;101270.22;5970398;29;21560;-88
2022/01/20 14:32:55;;;;;;;2.22;0.60;;;;;;;-0.56;100.00;101235.69;5974946;29;20053;-88
2022/01/20 14:35:59;;;;;;;2.45;0.50;;;;;;;-0.60;100.00;101253.59;5970748;29;20050;-88
2022/01/20 14:39:01;;;;;;;10.00;0.82;;;;;;;-0.51;100.00;101222.88;5980464;29;20064;-87
2022/01/20 14:42:10;;;;;;;3.25;1.30;;;;;;;-0.45;100.00;101230.38;5977133;29;20038;-87
2022/01/20 14:45:16;;;;;;;1.45;0.50;;;;;;;-0.39;100.00;101230.25;5972201;29;20464;-87
2022/01/20 14:48:24;;;;;;;4.32;0.98;;;;;;;-0.40;100.00;101235.34;5973202;29;20081;-88
2022/01/20 14:51:26;;;;;;;1.63;0.50;;;;;;;-0.41;100.00;101233.69;5977808;29;20046;-88
2022/01/20 14:54:30;;;;;;;1.05;0.70;;;;;;;-0.39;100.00;101242.13;5975221;29;20057;-88
2022/01/20 14:57:32;;;;;;;0.70;0.52;;;;;;;-0.41;100.00;101243.88;5975006;29;20065;-89
2022/01/20 15:00:35;;;;;;;2.97;0.75;;;;;;;-0.38;100.00;101231.91;5972268;29;20053;-89
2022/01/20 15:03:38;;;;;;;2.80;0.73;;;;;;;-0.35;100.00;101259.81;5964797;29;20050;-88
2022/01/20 15:06:41;;;;;;;3.03;0.82;;;;;;;-0.27;100.00;101245.25;5968687;29;20098;-88
2022/01/20 15:09:44;;;;;;;2.75;0.98;;;;;;;-0.16;100.00;101250.06;5970435;29;20206;-89
2022/01/20 15:12:47;;;;;;;5.57;0.90;;;;;;;-0.10;100.00;101255.03;5967775;29;20051;-90
2022/01/20 15:15:48;;;;;;;6.25;1.30;;;;;;;-0.12;100.00;101282.22;5981265;29;20546;-91
2022/01/20 15:18:54;;;;;;;2.65;0.90;;;;;;;-0.12;100.00;101287.31;5974942;29;20500;-91
2022/01/20 15:21:56;;;;;;;3.65;0.93;;;;;;;-0.10;100.00;101272.00;5975206;29;20049;-90
2022/01/20 15:24:58;;;;;;;5.05;1.77;;;;;;;-0.11;100.00;101265.25;5972805;29;20562;-90
2022/01/20 15:28:02;;;;;;;9.70;1.30;;;;;;;-0.03;100.00;101294.72;5976230;29;20058;-89
2022/01/20 15:31:03;;;;;;;6.18;1.20;;;;;;;-0.06;100.00;101271.06;5968356;29;20047;-89
2022/01/20 15:34:14;;;;;;;10.32;1.40;;;;;;;-0.10;100.00;101269.44;5969566;29;20053;-88
2022/01/20 15:37:16;;;;;;;10.85;1.60;;;;;;;-0.08;100.00;101282.97;5968995;29;20516;-88
2022/01/20 15:40:18;;;;;;;6.43;2.30;;;;;;;0.01;100.00;101292.97;5971515;29;20134;-88